Time;durP1;ratioP1;P1;durP2;ratioP2;P2;SDS_P1;SDS_P2;PMS_P1;PMS_P2;Temp;Humidity;BMP_temperature;BMP_pressure;BME280_temperature;BME280_humidity;BME280_pressure;Samples;Min_cycle;Max_cycle;Signal;HPM_P1;HPM_P2
2022/04/12 00:00:30;;;;;;;;;;;;;;;;;;2132270;27;20399;-48
2022/04/12 00:01:31;;;;;;;;;;;;;;;;;;2132432;27;19970;-48
2022/04/12 00:02:32;;;;;;;;;;;;;;;;;;2132330;27;19923;-49
2022/04/12 00:03:34;;;;;;;;;;;;;;;;;;2132397;27;19930;-48
2022/04/12 00:04:35;;;;;;;;;;;;;;;;;;2132804;27;19923;-48
2022/04/12 00:05:36;;;;;;;;;;;;;;;;;;2132276;27;20375;-48
2022/04/12 00:06:37;;;;;;;;;;;;;;;;;;2132212;27;19935;-48
2022/04/12 00:07:38;;;;;;;;;;;;;;;;;;2132256;27;20026;-50
2022/04/12 00:08:39;;;;;;;;;;;;;;;;;;2132446;27;19954;-48
2022/04/12 00:09:40;;;;;;;;;;;;;;;;;;2132299;27;19930;-48
2022/04/12 00:10:40;;;;;;;;;;;;;;;;;;2132538;27;20014;-50
2022/04/12 00:11:42;;;;;;;;;;;;;;;;;;2132226;27;20266;-48
2022/04/12 00:12:43;;;;;;;;;;;;;;;;;;2132294;27;20010;-51
2022/04/12 00:13:43;;;;;;;;;;;;;;;;;;2132377;27;20018;-49
2022/04/12 00:14:45;;;;;;;;;;;;;;;;;;2139293;27;19923;-49
2022/04/12 00:15:48;;;;;;;;;;;;;;;;;;2140139;27;19981;-51
2022/04/12 00:19:02;;;;;;;;;;;;;;;;;;2140749;27;19929;-48
2022/04/12 00:19:29;;;;;;;;;;;;;;;;;;2140753;27;20021;-48
2022/04/12 00:20:30;;;;;;;;;;;;;;;;;;2140826;27;19923;-48
2022/04/12 00:21:34;;;;;;;;;;;;;;;;;;2140787;27;19927;-49
2022/04/12 00:22:34;;;;;;;;;;;;;;;;;;2141064;27;20062;-50
2022/04/12 00:23:35;;;;;;;;;;;;;;;;;;2140846;27;20110;-47
2022/04/12 00:24:36;;;;;;;;;;;;;;;;;;2141044;27;20427;-49
2022/04/12 00:25:37;;;;;;;;;;;;;;;;;;2140661;27;19923;-49
2022/04/12 00:26:38;;;;;;;;;;;;;;;;;;2140890;27;20005;-49
2022/04/12 00:27:39;;;;;;;;;;;;;;;;;;2140725;27;20017;-50
2022/04/12 00:28:41;;;;;;;;;;;;;;;;;;2140388;27;20383;-51
2022/04/12 00:29:42;;;;;;;;;;;;;;;;;;2140893;27;19965;-48
2022/04/12 00:31:02;;;;;;;;;;;;;;;;;;2140809;27;19922;-49
2022/04/12 00:32:03;;;;;;;;;;;;;;;;;;2140692;27;20299;-48
2022/04/12 00:33:04;;;;;;;;;;;;;;;;;;2140579;27;19922;-50
2022/04/12 00:34:05;;;;;;;;;;;;;;;;;;2140863;27;19923;-47
2022/04/12 00:35:06;;;;;;;;;;;;;;;;;;2140743;27;20034;-48
2022/04/12 00:36:09;;;;;;;;;;;;;;;;;;2141037;27;19964;-48
2022/04/12 00:37:10;;;;;;;;;;;;;;;;;;2140843;27;19954;-48
2022/04/12 00:38:17;;;;;;;;;;;;;;;;;;2140729;27;19923;-48
2022/04/12 00:39:18;;;;;;;;;;;;;;;;;;2140724;27;20382;-49
2022/04/12 00:40:19;;;;;;;;;;;;;;;;;;2140997;27;19922;-44
2022/04/12 00:41:20;;;;;;;;;;;;;;;;;;2140724;27;20375;-44
2022/04/12 00:42:21;;;;;;;;;;;;;;;;;;2140743;27;19922;-44
2022/04/12 00:43:22;;;;;;;;;;;;;;;;;;2140655;27;19960;-44
2022/04/12 00:44:23;;;;;;;;;;;;;;;;;;2140703;27;19926;-44
2022/04/12 00:45:23;;;;;;;;;;;;;;;;;;2140744;27;20339;-44
2022/04/12 00:46:24;;;;;;;;;;;;;;;;;;2140498;27;20014;-44
2022/04/12 00:47:25;;;;;;;;;;;;;;;;;;2140878;27;19930;-44
2022/04/12 00:48:26;;;;;;;;;;;;;;;;;;2141003;27;19973;-52
2022/04/12 00:49:27;;;;;;;;;;;;;;;;;;2140858;27;19966;-50
2022/04/12 00:50:28;;;;;;;;;;;;;;;;;;2140589;27;19954;-48
2022/04/12 00:51:29;;;;;;;;;;;;;;;;;;2140739;27;20375;-48
2022/04/12 00:52:30;;;;;;;;;;;;;;;;;;2140681;27;19926;-48
2022/04/12 00:53:32;;;;;;;;;;;;;;;;;;2140784;27;19965;-49
2022/04/12 00:54:32;;;;;;;;;;;;;;;;;;2140650;27;19958;-50
2022/04/12 00:55:34;;;;;;;;;;;;;;;;;;2140069;27;20551;-42
2022/04/12 00:56:35;;;;;;;;;;;;;;;;;;2140687;27;19973;-44
2022/04/12 00:57:36;;;;;;;;;;;;;;;;;;2141045;27;19927;-48
2022/04/12 00:58:36;;;;;;;;;;;;;;;;;;2140820;27;20011;-49
2022/04/12 00:59:37;;;;;;;;;;;;;;;;;;2140605;27;19982;-50
2022/04/12 01:00:38;;;;;;;;;;;;;;;;;;2140723;27;19954;-50
2022/04/12 01:01:39;;;;;;;;;;;;;;;;;;2140319;27;19929;-48
2022/04/12 01:02:40;;;;;;;;;;;;;;;;;;2140669;27;20014;-50
2022/04/12 01:03:41;;;;;;;;;;;;;;;;;;2140646;27;19927;-49
2022/04/12 01:04:42;;;;;;;;;;;;;;;;;;2140766;27;20084;-50
2022/04/12 01:05:43;;;;;;;;;;;;;;;;;;2140834;27;19907;-44
2022/04/12 01:06:44;;;;;;;;;;;;;;;;;;2140578;27;19923;-44
2022/04/12 01:07:45;;;;;;;;;;;;;;;;;;2140612;27;20287;-44
2022/04/12 01:08:45;;;;;;;;;;;;;;;;;;2140636;27;19961;-44
2022/04/12 01:09:47;;;;;;;;;;;;;;;;;;2140024;27;19927;-44
2022/04/12 01:10:47;;;;;;;;;;;;;;;;;;2131772;27;19923;-44
2022/04/12 01:11:49;;;;;;;;;;;;;;;;;;2131963;27;20119;-44
2022/04/12 01:12:50;;;;;;;;;;;;;;;;;;2131641;27;19923;-44
2022/04/12 01:13:51;;;;;;;;;;;;;;;;;;2139887;27;19923;-44
2022/04/12 01:14:52;;;;;;;;;;;;;;;;;;2132533;27;20357;-44
2022/04/12 01:15:53;;;;;;;;;;;;;;;;;;2131961;27;20057;-44
2022/04/12 01:16:53;;;;;;;;;;;;;;;;;;2131770;27;19923;-43
2022/04/12 01:17:55;;;;;;;;;;;;;;;;;;2131817;27;19923;-44
2022/04/12 01:18:55;;;;;;;;;;;;;;;;;;2132165;27;20018;-44
2022/04/12 01:19:56;;;;;;;;;;;;;;;;;;2131723;27;20332;-44
2022/04/12 01:20:57;;;;;;;;;;;;;;;;;;2131843;27;20387;-44
2022/04/12 01:22:00;;;;;;;;;;;;;;;;;;2131596;27;19937;-44
2022/04/12 01:23:01;;;;;;;;;;;;;;;;;;2131808;27;19972;-44
2022/04/12 01:24:02;;;;;;;;;;;;;;;;;;2131791;27;19927;-44
2022/04/12 01:25:03;;;;;;;;;;;;;;;;;;2132284;27;19924;-48
2022/04/12 01:26:04;;;;;;;;;;;;;;;;;;2132368;27;20295;-47
2022/04/12 01:27:04;;;;;;;;;;;;;;;;;;2131455;27;19985;-48
2022/04/12 01:28:05;;;;;;;;;;;;;;;;;;2131780;27;20022;-50
2022/04/12 01:29:06;;;;;;;;;;;;;;;;;;2131885;27;19973;-49
2022/04/12 01:30:07;;;;;;;;;;;;;;;;;;2140413;27;19923;-50
2022/04/12 01:31:08;;;;;;;;;;;;;;;;;;2140289;27;20446;-48
2022/04/12 01:32:10;;;;;;;;;;;;;;;;;;2140683;27;19923;-44
2022/04/12 01:33:11;;;;;;;;;;;;;;;;;;2140406;27;20352;-44
2022/04/12 01:34:11;;;;;;;;;;;;;;;;;;2140356;27;20393;-44
2022/04/12 01:35:12;;;;;;;;;;;;;;;;;;2140420;27;19922;-44
2022/04/12 01:36:13;;;;;;;;;;;;;;;;;;2140317;27;20363;-44
2022/04/12 01:37:14;;;;;;;;;;;;;;;;;;2140281;27;19931;-43
2022/04/12 01:38:15;;;;;;;;;;;;;;;;;;2140652;27;19929;-49
2022/04/12 01:39:16;;;;;;;;;;;;;;;;;;2140285;27;19970;-47
2022/04/12 01:40:17;;;;;;;;;;;;;;;;;;2140725;27;19930;-49
2022/04/12 01:41:18;;;;;;;;;;;;;;;;;;2140482;27;19923;-44
2022/04/12 01:42:19;;;;;;;;;;;;;;;;;;2140313;27;19961;-44
2022/04/12 01:43:20;;;;;;;;;;;;;;;;;;2140350;27;19966;-44
2022/04/12 01:44:20;;;;;;;;;;;;;;;;;;2140290;27;19961;-44
2022/04/12 01:45:21;;;;;;;;;;;;;;;;;;2140438;27;19929;-44
2022/04/12 01:46:22;;;;;;;;;;;;;;;;;;2140334;27;19990;-44
2022/04/12 01:47:23;;;;;;;;;;;;;;;;;;2140213;27;20018;-44
2022/04/12 01:48:24;;;;;;;;;;;;;;;;;;2140344;27;20018;-44
2022/04/12 01:49:25;;;;;;;;;;;;;;;;;;2140662;27;19957;-49
2022/04/12 01:50:26;;;;;;;;;;;;;;;;;;2140233;27;19977;-49
2022/04/12 01:51:28;;;;;;;;;;;;;;;;;;2140333;27;19930;-48
2022/04/12 01:52:28;;;;;;;;;;;;;;;;;;2140417;27;20006;-48
2022/04/12 01:53:29;;;;;;;;;;;;;;;;;;2140156;27;20001;-52
2022/04/12 01:54:30;;;;;;;;;;;;;;;;;;2140376;27;19976;-50
2022/04/12 01:55:31;;;;;;;;;;;;;;;;;;2139894;27;19927;-48
2022/04/12 01:56:32;;;;;;;;;;;;;;;;;;2140239;27;19922;-48
2022/04/12 01:57:33;;;;;;;;;;;;;;;;;;2140339;27;19923;-49
2022/04/12 01:58:35;;;;;;;;;;;;;;;;;;2140201;27;20398;-49
2022/04/12 01:59:37;;;;;;;;;;;;;;;;;;2140169;27;20459;-51
2022/04/12 02:00:37;;;;;;;;;;;;;;;;;;2140661;27;19922;-44
2022/04/12 02:01:38;;;;;;;;;;;;;;;;;;2140160;27;19966;-44
2022/04/12 02:02:39;;;;;;;;;;;;;;;;;;2140108;27;19927;-44
2022/04/12 02:03:40;;;;;;;;;;;;;;;;;;2140517;27;19923;-49
2022/04/12 02:04:41;;;;;;;;;;;;;;;;;;2140205;27;20002;-48
2022/04/12 02:05:42;;;;;;;;;;;;;;;;;;2140153;27;19923;-49
2022/04/12 02:06:43;;;;;;;;;;;;;;;;;;2140148;27;20017;-48
2022/04/12 02:07:44;;;;;;;;;;;;;;;;;;2140136;27;19922;-51
2022/04/12 02:08:45;;;;;;;;;;;;;;;;;;2139638;27;19964;-50
2022/04/12 02:09:47;;;;;;;;;;;;;;;;;;2140194;27;19933;-49
2022/04/12 02:10:47;;;;;;;;;;;;;;;;;;2140137;27;20353;-52
2022/04/12 02:11:49;;;;;;;;;;;;;;;;;;2139987;27;19934;-48
2022/04/12 02:12:50;;;;;;;;;;;;;;;;;;2140103;27;19966;-48
2022/04/12 02:13:51;;;;;;;;;;;;;;;;;;2140135;27;20466;-48
2022/04/12 02:14:51;;;;;;;;;;;;;;;;;;2140050;27;19923;-49
2022/04/12 02:15:52;;;;;;;;;;;;;;;;;;2140069;27;20009;-48
2022/04/12 02:16:53;;;;;;;;;;;;;;;;;;2140048;27;20291;-48
2022/04/12 02:17:54;;;;;;;;;;;;;;;;;;2140102;27;19922;-48
2022/04/12 02:18:55;;;;;;;;;;;;;;;;;;2140023;27;20356;-47
2022/04/12 02:19:56;;;;;;;;;;;;;;;;;;2140034;27;20055;-48
2022/04/12 02:20:57;;;;;;;;;;;;;;;;;;2140196;27;19922;-49
2022/04/12 02:21:58;;;;;;;;;;;;;;;;;;2139979;27;20033;-49
2022/04/12 02:22:59;;;;;;;;;;;;;;;;;;2140266;27;19923;-49
2022/04/12 02:24:00;;;;;;;;;;;;;;;;;;2140004;27;19954;-49
2022/04/12 02:25:01;;;;;;;;;;;;;;;;;;2140050;27;20368;-49
2022/04/12 02:26:02;;;;;;;;;;;;;;;;;;2139864;27;19970;-48
2022/04/12 02:27:03;;;;;;;;;;;;;;;;;;2139912;27;19923;-48
2022/04/12 02:28:04;;;;;;;;;;;;;;;;;;2140102;27;20415;-51
2022/04/12 02:29:06;;;;;;;;;;;;;;;;;;2140168;27;19923;-48
2022/04/12 02:30:08;;;;;;;;;;;;;;;;;;2140227;27;19923;-44
2022/04/12 02:31:10;;;;;;;;;;;;;;;;;;2140267;27;20013;-48
2022/04/12 02:32:11;;;;;;;;;;;;;;;;;;2140253;27;19983;-49
2022/04/12 02:33:12;;;;;;;;;;;;;;;;;;2140196;27;20356;-48
2022/04/12 02:34:13;;;;;;;;;;;;;;;;;;2140082;27;20067;-49
2022/04/12 02:35:14;;;;;;;;;;;;;;;;;;2140196;27;19956;-50
2022/04/12 02:36:14;;;;;;;;;;;;;;;;;;2139900;27;20031;-48
2022/04/12 02:37:16;;;;;;;;;;;;;;;;;;2139991;27;20403;-48
2022/04/12 02:38:17;;;;;;;;;;;;;;;;;;2140127;27;19926;-50
2022/04/12 02:39:18;;;;;;;;;;;;;;;;;;2140387;27;19981;-49
2022/04/12 02:40:19;;;;;;;;;;;;;;;;;;2141561;27;20475;-48
2022/04/12 02:41:20;;;;;;;;;;;;;;;;;;2141765;27;19950;-44
2022/04/12 02:42:21;;;;;;;;;;;;;;;;;;2141522;27;20417;-44
2022/04/12 02:43:22;;;;;;;;;;;;;;;;;;2141658;27;19961;-44
2022/04/12 02:44:23;;;;;;;;;;;;;;;;;;2141681;27;20410;-44
2022/04/12 02:45:24;;;;;;;;;;;;;;;;;;2141459;27;19948;-44
2022/04/12 02:46:25;;;;;;;;;;;;;;;;;;2141688;27;19962;-44
2022/04/12 02:47:28;;;;;;;;;;;;;;;;;;2141508;27;19930;-44
2022/04/12 02:48:28;;;;;;;;;;;;;;;;;;2141525;27;20371;-44
2022/04/12 02:49:29;;;;;;;;;;;;;;;;;;2141704;27;20017;-48
2022/04/12 02:50:30;;;;;;;;;;;;;;;;;;2141548;27;20021;-48
2022/04/12 02:51:31;;;;;;;;;;;;;;;;;;2141214;27;19931;-48
2022/04/12 02:52:32;;;;;;;;;;;;;;;;;;2141467;27;20377;-49
2022/04/12 02:53:33;;;;;;;;;;;;;;;;;;2141434;27;20022;-49
2022/04/12 02:54:34;;;;;;;;;;;;;;;;;;2141664;27;20348;-44
2022/04/12 02:55:35;;;;;;;;;;;;;;;;;;2141424;27;19962;-44
2022/04/12 02:56:35;;;;;;;;;;;;;;;;;;2141314;27;19954;-44
2022/04/12 02:57:37;;;;;;;;;;;;;;;;;;2141489;27;20264;-44
2022/04/12 02:58:37;;;;;;;;;;;;;;;;;;2141400;27;20007;-44
2022/04/12 02:59:38;;;;;;;;;;;;;;;;;;2141449;27;19986;-44
2022/04/12 03:00:39;;;;;;;;;;;;;;;;;;2141294;27;20410;-44
2022/04/12 03:01:40;;;;;;;;;;;;;;;;;;2141298;27;19946;-44
2022/04/12 03:02:41;;;;;;;;;;;;;;;;;;2141487;27;19923;-44
2022/04/12 03:03:42;;;;;;;;;;;;;;;;;;2141504;27;20628;-44
2022/04/12 03:04:43;;;;;;;;;;;;;;;;;;2141535;27;19977;-49
2022/04/12 03:05:44;;;;;;;;;;;;;;;;;;2141453;27;19954;-48
2022/04/12 03:06:45;;;;;;;;;;;;;;;;;;2141376;27;20013;-48
2022/04/12 03:07:46;;;;;;;;;;;;;;;;;;2141281;27;19922;-48
2022/04/12 03:08:46;;;;;;;;;;;;;;;;;;2141371;27;19971;-48
2022/04/12 03:09:47;;;;;;;;;;;;;;;;;;2141299;27;19922;-48
2022/04/12 03:10:48;;;;;;;;;;;;;;;;;;2141563;27;19961;-48
2022/04/12 03:11:49;;;;;;;;;;;;;;;;;;2141665;27;20001;-49
2022/04/12 03:12:50;;;;;;;;;;;;;;;;;;2141305;27;20017;-49
2022/04/12 03:13:52;;;;;;;;;;;;;;;;;;2141348;27;19962;-49
2022/04/12 03:14:53;;;;;;;;;;;;;;;;;;2132771;27;20050;-48
2022/04/12 03:15:54;;;;;;;;;;;;;;;;;;2132926;27;20391;-49
2022/04/12 03:16:55;;;;;;;;;;;;;;;;;;2132578;27;19931;-49
2022/04/12 03:17:56;;;;;;;;;;;;;;;;;;2132703;27;19927;-49
2022/04/12 03:18:57;;;;;;;;;;;;;;;;;;2133110;27;19930;-44
2022/04/12 03:19:58;;;;;;;;;;;;;;;;;;2132722;27;20278;-44
2022/04/12 03:20:59;;;;;;;;;;;;;;;;;;2132681;27;20030;-44
2022/04/12 03:22:00;;;;;;;;;;;;;;;;;;2136319;27;19930;-45
2022/04/12 03:23:01;;;;;;;;;;;;;;;;;;2141074;27;19922;-44
2022/04/12 03:24:02;;;;;;;;;;;;;;;;;;2141229;27;19922;-48
2022/04/12 03:25:03;;;;;;;;;;;;;;;;;;2140996;27;19923;-44
2022/04/12 03:26:03;;;;;;;;;;;;;;;;;;2141648;27;20195;-49
2022/04/12 03:27:04;;;;;;;;;;;;;;;;;;2141173;27;20406;-51
2022/04/12 03:28:05;;;;;;;;;;;;;;;;;;2141204;27;20405;-44
2022/04/12 03:29:07;;;;;;;;;;;;;;;;;;2141318;27;19948;-44
2022/04/12 03:30:07;;;;;;;;;;;;;;;;;;2141188;27;19930;-44
2022/04/12 03:31:08;;;;;;;;;;;;;;;;;;2141358;27;19923;-44
2022/04/12 03:32:10;;;;;;;;;;;;;;;;;;2141047;27;19946;-44
2022/04/12 03:33:11;;;;;;;;;;;;;;;;;;2141707;27;19971;-50
2022/04/12 03:34:12;;;;;;;;;;;;;;;;;;2141147;27;19927;-49
2022/04/12 03:35:13;;;;;;;;;;;;;;;;;;2141221;27;19922;-49
2022/04/12 03:36:13;;;;;;;;;;;;;;;;;;2141410;27;19929;-44
2022/04/12 03:37:15;;;;;;;;;;;;;;;;;;2141534;27;19954;-44
2022/04/12 03:38:16;;;;;;;;;;;;;;;;;;2141343;27;19939;-44
2022/04/12 03:39:18;;;;;;;;;;;;;;;;;;2141108;27;19943;-44
2022/04/12 03:40:18;;;;;;;;;;;;;;;;;;2141350;27;20009;-44
2022/04/12 03:41:21;;;;;;;;;;;;;;;;;;2141534;27;19922;-44
2022/04/12 03:42:22;;;;;;;;;;;;;;;;;;2141252;27;19954;-44
2022/04/12 03:43:23;;;;;;;;;;;;;;;;;;2141162;27;19942;-44
2022/04/12 03:44:23;;;;;;;;;;;;;;;;;;2141629;27;19931;-45
2022/04/12 03:45:25;;;;;;;;;;;;;;;;;;2141598;27;20414;-49
2022/04/12 03:46:26;;;;;;;;;;;;;;;;;;2141139;27;19971;-48
2022/04/12 03:47:27;;;;;;;;;;;;;;;;;;2141201;27;19984;-48
2022/04/12 03:48:28;;;;;;;;;;;;;;;;;;2141308;27;20439;-49
2022/04/12 03:49:29;;;;;;;;;;;;;;;;;;2141101;27;19923;-49
2022/04/12 03:50:31;;;;;;;;;;;;;;;;;;2141052;27;20036;-49
2022/04/12 03:51:32;;;;;;;;;;;;;;;;;;2140953;27;19976;-49
2022/04/12 03:52:32;;;;;;;;;;;;;;;;;;2140977;27;19961;-49
2022/04/12 03:53:33;;;;;;;;;;;;;;;;;;2141315;27;19923;-48
2022/04/12 03:54:34;;;;;;;;;;;;;;;;;;2141372;27;19923;-48
2022/04/12 03:55:38;;;;;;;;;;;;;;;;;;2141084;27;20016;-49
2022/04/12 03:56:41;;;;;;;;;;;;;;;;;;2141218;27;19923;-48
2022/04/12 03:57:42;;;;;;;;;;;;;;;;;;2141157;27;19962;-49
2022/04/12 03:58:43;;;;;;;;;;;;;;;;;;2140915;27;20005;-50
2022/04/12 03:59:44;;;;;;;;;;;;;;;;;;2141150;27;20436;-48
2022/04/12 04:00:45;;;;;;;;;;;;;;;;;;2141228;27;19926;-50
2022/04/12 04:01:46;;;;;;;;;;;;;;;;;;2141004;27;19994;-44
2022/04/12 04:02:48;;;;;;;;;;;;;;;;;;2141147;27;19924;-44
2022/04/12 04:03:48;;;;;;;;;;;;;;;;;;2141115;27;20331;-44
2022/04/12 04:04:49;;;;;;;;;;;;;;;;;;2141016;27;19930;-44
2022/04/12 04:05:50;;;;;;;;;;;;;;;;;;2141164;27;19987;-44
2022/04/12 04:06:51;;;;;;;;;;;;;;;;;;2141025;27;19995;-44
2022/04/12 04:07:52;;;;;;;;;;;;;;;;;;2140753;27;20214;-43
2022/04/12 04:08:55;;;;;;;;;;;;;;;;;;2141029;27;20371;-44
2022/04/12 04:09:56;;;;;;;;;;;;;;;;;;2140793;27;19923;-44
2022/04/12 04:10:57;;;;;;;;;;;;;;;;;;2136782;27;20034;-44
2022/04/12 04:11:58;;;;;;;;;;;;;;;;;;2132173;27;20394;-44
2022/04/12 04:12:59;;;;;;;;;;;;;;;;;;2132533;27;20018;-44
2022/04/12 04:14:03;;;;;;;;;;;;;;;;;;2132228;27;20303;-45
2022/04/12 04:15:06;;;;;;;;;;;;;;;;;;2132320;27;19950;-44
2022/04/12 04:16:07;;;;;;;;;;;;;;;;;;2132235;27;19964;-44
2022/04/12 04:17:08;;;;;;;;;;;;;;;;;;2132251;27;20010;-44
2022/04/12 04:18:09;;;;;;;;;;;;;;;;;;2135040;27;20390;-44
2022/04/12 04:19:11;;;;;;;;;;;;;;;;;;2141006;27;19923;-50
2022/04/12 04:20:12;;;;;;;;;;;;;;;;;;2141038;27;19930;-44
2022/04/12 04:21:13;;;;;;;;;;;;;;;;;;2141112;27;20001;-50
2022/04/12 04:22:15;;;;;;;;;;;;;;;;;;2141047;27;19922;-50
2022/04/12 04:23:15;;;;;;;;;;;;;;;;;;2140953;27;19923;-49
2022/04/12 04:24:16;;;;;;;;;;;;;;;;;;2141100;27;20257;-51
2022/04/12 04:25:17;;;;;;;;;;;;;;;;;;2140979;27;19934;-48
2022/04/12 04:26:18;;;;;;;;;;;;;;;;;;2140740;27;20391;-50
2022/04/12 04:27:19;;;;;;;;;;;;;;;;;;2140854;27;20374;-48
2022/04/12 04:28:21;;;;;;;;;;;;;;;;;;2140899;27;19923;-48
2022/04/12 04:29:23;;;;;;;;;;;;;;;;;;2140841;27;19973;-49
2022/04/12 04:30:24;;;;;;;;;;;;;;;;;;2140848;27;19979;-49
2022/04/12 04:31:25;;;;;;;;;;;;;;;;;;2140896;27;20413;-49
2022/04/12 04:32:30;;;;;;;;;;;;;;;;;;2140890;27;20291;-45
2022/04/12 04:33:31;;;;;;;;;;;;;;;;;;2141019;27;19969;-44
2022/04/12 04:34:32;;;;;;;;;;;;;;;;;;2140893;27;19929;-44
2022/04/12 04:35:33;;;;;;;;;;;;;;;;;;2140742;27;19977;-44
2022/04/12 04:36:34;;;;;;;;;;;;;;;;;;2140942;27;19970;-48
2022/04/12 04:37:35;;;;;;;;;;;;;;;;;;2140767;27;19930;-46
2022/04/12 04:38:36;;;;;;;;;;;;;;;;;;2140785;27;19970;-48
2022/04/12 04:39:37;;;;;;;;;;;;;;;;;;2140770;27;20025;-51
2022/04/12 04:40:38;;;;;;;;;;;;;;;;;;2141031;27;20012;-49
2022/04/12 04:41:39;;;;;;;;;;;;;;;;;;2140670;27;19962;-51
2022/04/12 04:42:40;;;;;;;;;;;;;;;;;;2140811;27;20497;-49
2022/04/12 04:43:43;;;;;;;;;;;;;;;;;;2140855;27;19996;-48
2022/04/12 04:44:45;;;;;;;;;;;;;;;;;;2140711;27;20325;-49
2022/04/12 04:45:46;;;;;;;;;;;;;;;;;;2141003;27;20218;-44
2022/04/12 04:46:46;;;;;;;;;;;;;;;;;;2140621;27;20540;-44
2022/04/12 04:47:47;;;;;;;;;;;;;;;;;;2140651;27;19962;-44
2022/04/12 04:48:49;;;;;;;;;;;;;;;;;;2140703;27;20005;-44
2022/04/12 04:49:50;;;;;;;;;;;;;;;;;;2140731;27;20013;-44
2022/04/12 04:50:51;;;;;;;;;;;;;;;;;;2140830;27;20295;-48
2022/04/12 04:51:52;;;;;;;;;;;;;;;;;;2140633;27;20051;-48
2022/04/12 04:52:53;;;;;;;;;;;;;;;;;;2140923;27;20009;-44
2022/04/12 04:53:58;;;;;;;;;;;;;;;;;;2140622;27;20343;-44
2022/04/12 04:54:59;;;;;;;;;;;;;;;;;;2140746;27;19971;-44
2022/04/12 04:56:00;;;;;;;;;;;;;;;;;;2140719;27;19967;-44
2022/04/12 04:57:01;;;;;;;;;;;;;;;;;;2140543;27;20373;-44
2022/04/12 04:58:01;;;;;;;;;;;;;;;;;;2140639;27;19922;-45
2022/04/12 04:59:02;;;;;;;;;;;;;;;;;;2140581;27;20017;-44
2022/04/12 05:00:03;;;;;;;;;;;;;;;;;;2140595;27;19965;-44
2022/04/12 05:01:04;;;;;;;;;;;;;;;;;;2140776;27;19923;-44
2022/04/12 05:02:05;;;;;;;;;;;;;;;;;;2140132;27;19923;-44
2022/04/12 05:03:06;;;;;;;;;;;;;;;;;;2140787;27;19923;-49
2022/04/12 05:04:07;;;;;;;;;;;;;;;;;;2140556;27;20013;-48
2022/04/12 05:05:08;;;;;;;;;;;;;;;;;;2140499;27;19923;-49
2022/04/12 05:06:09;;;;;;;;;;;;;;;;;;2140690;27;19923;-49
2022/04/12 05:07:10;;;;;;;;;;;;;;;;;;2140680;27;19954;-44
2022/04/12 05:08:14;;;;;;;;;;;;;;;;;;2140450;27;19923;-44
2022/04/12 05:09:15;;;;;;;;;;;;;;;;;;2140931;27;20271;-49
2022/04/12 05:10:16;;;;;;;;;;;;;;;;;;2140612;27;19930;-49
2022/04/12 05:11:17;;;;;;;;;;;;;;;;;;2140376;27;19926;-49
2022/04/12 05:12:18;;;;;;;;;;;;;;;;;;2140782;27;20394;-49
2022/04/12 05:13:19;;;;;;;;;;;;;;;;;;2140594;27;19931;-49
2022/04/12 05:14:20;;;;;;;;;;;;;;;;;;2138861;27;19930;-47
2022/04/12 05:15:21;;;;;;;;;;;;;;;;;;2140545;27;20291;-49
2022/04/12 05:16:22;;;;;;;;;;;;;;;;;;2140549;27;20005;-48
2022/04/12 05:17:24;;;;;;;;;;;;;;;;;;2140445;27;19927;-49
2022/04/12 05:18:25;;;;;;;;;;;;;;;;;;2140466;27;19958;-49
2022/04/12 05:19:26;;;;;;;;;;;;;;;;;;2141059;27;20010;-44
2022/04/12 05:20:27;;;;;;;;;;;;;;;;;;2140682;27;20361;-44
2022/04/12 05:21:28;;;;;;;;;;;;;;;;;;2140437;27;19968;-44
2022/04/12 05:22:29;;;;;;;;;;;;;;;;;;2140720;27;20001;-48
2022/04/12 05:23:30;;;;;;;;;;;;;;;;;;2140489;27;19935;-49
2022/04/12 05:24:31;;;;;;;;;;;;;;;;;;2140727;27;19933;-45
2022/04/12 05:25:32;;;;;;;;;;;;;;;;;;2140525;27;19923;-44
2022/04/12 05:26:33;;;;;;;;;;;;;;;;;;2140298;27;20009;-44
2022/04/12 05:27:33;;;;;;;;;;;;;;;;;;2140583;27;19923;-45
2022/04/12 05:28:34;;;;;;;;;;;;;;;;;;2140960;27;20009;-49
2022/04/12 05:29:35;;;;;;;;;;;;;;;;;;2140378;27;19927;-49
2022/04/12 05:30:37;;;;;;;;;;;;;;;;;;2140570;27;19951;-49
2022/04/12 05:31:38;;;;;;;;;;;;;;;;;;2140288;27;19954;-48
2022/04/12 05:32:39;;;;;;;;;;;;;;;;;;2140412;27;19930;-49
2022/04/12 05:33:39;;;;;;;;;;;;;;;;;;2140251;27;19970;-48
2022/04/12 05:34:40;;;;;;;;;;;;;;;;;;2140609;27;19930;-48
2022/04/12 05:35:41;;;;;;;;;;;;;;;;;;2140398;27;20270;-49
2022/04/12 05:36:42;;;;;;;;;;;;;;;;;;2140288;27;20614;-48
2022/04/12 05:37:43;;;;;;;;;;;;;;;;;;2140368;27;20026;-48
2022/04/12 05:38:44;;;;;;;;;;;;;;;;;;2140484;27;19930;-47
2022/04/12 05:39:45;;;;;;;;;;;;;;;;;;2140352;27;19966;-48
2022/04/12 05:40:46;;;;;;;;;;;;;;;;;;2140247;27;19977;-44
2022/04/12 05:41:47;;;;;;;;;;;;;;;;;;2140250;27;19978;-43
2022/04/12 05:42:47;;;;;;;;;;;;;;;;;;2140396;27;19941;-46
2022/04/12 05:43:48;;;;;;;;;;;;;;;;;;2140363;27;19930;-44
2022/04/12 05:44:49;;;;;;;;;;;;;;;;;;2140288;27;20034;-44
2022/04/12 05:45:51;;;;;;;;;;;;;;;;;;2140505;27;19934;-44
2022/04/12 05:46:51;;;;;;;;;;;;;;;;;;2140286;27;20343;-44
2022/04/12 05:47:52;;;;;;;;;;;;;;;;;;2140415;27;19929;-44
2022/04/12 05:48:53;;;;;;;;;;;;;;;;;;2140670;27;20013;-44
2022/04/12 05:49:54;;;;;;;;;;;;;;;;;;2140289;27;20367;-43
2022/04/12 05:50:55;;;;;;;;;;;;;;;;;;2140363;27;20439;-44
2022/04/12 05:51:56;;;;;;;;;;;;;;;;;;2140147;27;19958;-42
2022/04/12 05:52:57;;;;;;;;;;;;;;;;;;2140369;27;19958;-45
2022/04/12 05:53:58;;;;;;;;;;;;;;;;;;2140341;27;19970;-45
2022/04/12 05:54:59;;;;;;;;;;;;;;;;;;2140297;27;19991;-46
2022/04/12 05:56:00;;;;;;;;;;;;;;;;;;2140194;27;19993;-44
2022/04/12 05:57:00;;;;;;;;;;;;;;;;;;2140166;27;20363;-45
2022/04/12 05:58:03;;;;;;;;;;;;;;;;;;2140215;27;19975;-45
2022/04/12 05:59:06;;;;;;;;;;;;;;;;;;2140562;27;20027;-48
2022/04/12 06:00:07;;;;;;;;;;;;;;;;;;2140158;27;20022;-49
2022/04/12 06:01:08;;;;;;;;;;;;;;;;;;2140479;27;19929;-49
2022/04/12 06:02:09;;;;;;;;;;;;;;;;;;2140322;27;20025;-49
2022/04/12 06:03:10;;;;;;;;;;;;;;;;;;2138805;27;20403;-45
2022/04/12 06:04:11;;;;;;;;;;;;;;;;;;2131607;27;19923;-44
2022/04/12 06:05:13;;;;;;;;;;;;;;;;;;2131519;27;19923;-45
2022/04/12 06:06:14;;;;;;;;;;;;;;;;;;2131473;27;20325;-45
2022/04/12 06:07:15;;;;;;;;;;;;;;;;;;2131622;27;20014;-44
2022/04/12 06:08:16;;;;;;;;;;;;;;;;;;2131528;27;19997;-45
2022/04/12 06:09:17;;;;;;;;;;;;;;;;;;2131830;27;19927;-49
2022/04/12 06:10:18;;;;;;;;;;;;;;;;;;2131533;27;19930;-49
2022/04/12 06:11:19;;;;;;;;;;;;;;;;;;2131816;27;20018;-45
2022/04/12 06:12:20;;;;;;;;;;;;;;;;;;2131625;27;20328;-49
2022/04/12 06:13:21;;;;;;;;;;;;;;;;;;2131707;27;20010;-49
2022/04/12 06:14:22;;;;;;;;;;;;;;;;;;2135799;27;19923;-49
2022/04/12 06:15:23;;;;;;;;;;;;;;;;;;2141669;27;20062;-49
2022/04/12 06:16:24;;;;;;;;;;;;;;;;;;2141741;27;19973;-48
2022/04/12 06:17:25;;;;;;;;;;;;;;;;;;2141811;27;20009;-50
2022/04/12 06:18:26;;;;;;;;;;;;;;;;;;2141982;27;20287;-50
2022/04/12 06:19:27;;;;;;;;;;;;;;;;;;2141797;27;20422;-49
2022/04/12 06:20:28;;;;;;;;;;;;;;;;;;2141998;27;19927;-45
2022/04/12 06:21:28;;;;;;;;;;;;;;;;;;2141628;27;19969;-45
2022/04/12 06:22:29;;;;;;;;;;;;;;;;;;2141769;27;19969;-45
2022/04/12 06:23:30;;;;;;;;;;;;;;;;;;2141638;27;19923;-45
2022/04/12 06:24:31;;;;;;;;;;;;;;;;;;2141599;27;19933;-45
2022/04/12 06:25:32;;;;;;;;;;;;;;;;;;2141862;27;20003;-45
2022/04/12 06:26:33;;;;;;;;;;;;;;;;;;2141552;27;20371;-46
2022/04/12 06:27:34;;;;;;;;;;;;;;;;;;2141973;27;19923;-48
2022/04/12 06:28:35;;;;;;;;;;;;;;;;;;2141798;27;19923;-48
2022/04/12 06:29:36;;;;;;;;;;;;;;;;;;2141586;27;19944;-49
2022/04/12 06:30:37;;;;;;;;;;;;;;;;;;2141499;27;19933;-49
2022/04/12 06:31:38;;;;;;;;;;;;;;;;;;2141701;27;20363;-47
2022/04/12 06:32:40;;;;;;;;;;;;;;;;;;2141728;27;19923;-47
2022/04/12 06:33:41;;;;;;;;;;;;;;;;;;2141806;27;19930;-46
2022/04/12 06:34:42;;;;;;;;;;;;;;;;;;2141735;27;20017;-47
2022/04/12 06:35:43;;;;;;;;;;;;;;;;;;2141911;27;20287;-44
2022/04/12 06:36:44;;;;;;;;;;;;;;;;;;2141415;27;19923;-44
2022/04/12 06:37:44;;;;;;;;;;;;;;;;;;2141697;27;19923;-44
2022/04/12 06:38:45;;;;;;;;;;;;;;;;;;2141667;27;20009;-44
2022/04/12 06:39:46;;;;;;;;;;;;;;;;;;2141641;27;20018;-44
2022/04/12 06:40:49;;;;;;;;;;;;;;;;;;2142030;27;20336;-44
2022/04/12 06:41:49;;;;;;;;;;;;;;;;;;2141920;27;20387;-45
2022/04/12 06:42:50;;;;;;;;;;;;;;;;;;2140929;27;19970;-44
2022/04/12 06:43:51;;;;;;;;;;;;;;;;;;2141720;27;19922;-50
2022/04/12 06:44:52;;;;;;;;;;;;;;;;;;2141631;27;19923;-50
2022/04/12 06:45:53;;;;;;;;;;;;;;;;;;2141496;27;19927;-47
2022/04/12 06:46:54;;;;;;;;;;;;;;;;;;2141498;27;19948;-48
2022/04/12 06:47:55;;;;;;;;;;;;;;;;;;2141473;27;19945;-48
2022/04/12 06:48:56;;;;;;;;;;;;;;;;;;2141511;27;19922;-47
2022/04/12 06:49:57;;;;;;;;;;;;;;;;;;2141532;27;20372;-48
2022/04/12 06:50:58;;;;;;;;;;;;;;;;;;2141417;27;20018;-48
2022/04/12 06:51:59;;;;;;;;;;;;;;;;;;2141494;27;20001;-50
2022/04/12 06:53:00;;;;;;;;;;;;;;;;;;2141382;27;19922;-47
2022/04/12 06:54:01;;;;;;;;;;;;;;;;;;2141559;27;19930;-47
2022/04/12 06:55:04;;;;;;;;;;;;;;;;;;2141402;27;20013;-47
2022/04/12 06:56:06;;;;;;;;;;;;;;;;;;2141590;27;20018;-47
2022/04/12 06:57:07;;;;;;;;;;;;;;;;;;2141459;27;20005;-49
2022/04/12 06:58:08;;;;;;;;;;;;;;;;;;2141517;27;19927;-47
2022/04/12 06:59:08;;;;;;;;;;;;;;;;;;2141662;27;20021;-44